aviador You're here:

LZKZ Decoded Metar

KOSICE in SLOVAKIA
Report Time2018-05-23 20:30:00
UTC Time2018-05-23 20:44:02
Flight Rules vfr VFR
Wind350° at 07 kt
W.Decomp.*RWY 01: 6.3 kt HW 3 kt LCW
W.Rank350° ranks 7
Current wind is above 350° avg. (5.8)
Visibility9999 m
Phenomena:N/A
Clouds:N/A
Expected CloudBase > 2,800 ft AGL from Temp-Dew spread
CeilingNone
Temp20°C (ISA +7)
Dew Point13°C (64% RH)
AAT18.4°C
QNH1019 hPa
Density Alt1,522 ft
Elevation761 ft
Report Wrong Elevation
Raw Report
LZKZ 232030Z 35007KT CAVOK 20/13 Q1019=

Extra information for LZKZ:More info

Metar Taf Metar & Taf Last 4 Metars F.Rules Stats Wind Profile Meteogram Temp Stats Airport Information Weather charts Add Link Nearby VenuesMetar ALERT Operation Metar Decoded Social comments